createdAt,value
2023-11-30T00:00:21.562Z,88.11
2023-11-30T00:03:12.355Z,88.08
2023-11-30T00:05:43.594Z,88.36
2023-11-30T00:08:14.886Z,88.16
2023-11-30T00:10:46.136Z,88.38
2023-11-30T00:13:17.472Z,88.47
2023-11-30T00:15:48.804Z,88.51
2023-11-30T00:18:19.999Z,88.49
2023-11-30T00:20:49.658Z,88.54
2023-11-30T00:23:20.696Z,88.30
2023-11-30T00:25:51.764Z,88.37
2023-11-30T00:28:23.023Z,88.52
2023-11-30T00:30:54.106Z,88.50
2023-11-30T00:33:25.256Z,88.58
2023-11-30T00:35:55.149Z,88.43
2023-11-30T00:38:26.336Z,88.58
2023-11-30T00:40:57.595Z,88.50
2023-11-30T00:43:28.733Z,88.59
2023-11-30T00:46:06.751Z,88.63
2023-11-30T00:48:41.198Z,88.68
2023-11-30T00:51:11.709Z,88.70
2023-11-30T00:53:41.398Z,88.74
2023-11-30T00:56:14.171Z,89.02
2023-11-30T00:58:45.384Z,88.97
2023-11-30T01:01:16.735Z,88.98
2023-11-30T01:03:48.459Z,88.90
2023-11-30T01:06:19.776Z,88.95
2023-11-30T01:08:51.130Z,88.95
2023-11-30T01:11:22.320Z,89.06
2023-11-30T01:13:53.484Z,89.10
2023-11-30T01:16:24.654Z,89.06
2023-11-30T01:18:55.726Z,88.96
2023-11-30T01:21:26.964Z,88.96
2023-11-30T01:23:58.123Z,88.91
2023-11-30T01:26:29.344Z,88.91
2023-11-30T01:29:00.319Z,88.79
2023-11-30T01:31:32.340Z,88.56
2023-11-30T01:34:03.518Z,88.85
2023-11-30T01:36:34.657Z,88.59
2023-11-30T01:39:06.174Z,88.63
2023-11-30T01:41:39.739Z,88.49
2023-11-30T01:44:11.437Z,88.52
2023-11-30T01:46:42.682Z,88.51
2023-11-30T01:49:13.857Z,88.66
2023-11-30T01:51:45.601Z,88.61
2023-11-30T01:54:18.054Z,88.62
2023-11-30T01:56:49.415Z,88.64
2023-11-30T01:59:20.771Z,88.39
2023-11-30T02:01:52.356Z,88.38
2023-11-30T02:04:23.641Z,88.47
2023-11-30T02:06:54.892Z,88.47
2023-11-30T02:09:25.775Z,88.43
2023-11-30T02:11:57.132Z,88.46
2023-11-30T02:14:28.205Z,88.57
2023-11-30T02:16:59.391Z,88.56
2023-11-30T02:19:30.721Z,88.54
2023-11-30T02:22:01.993Z,88.57
2023-11-30T02:24:33.912Z,88.36
2023-11-30T02:27:05.067Z,88.50
2023-11-30T02:29:36.256Z,88.53
2023-11-30T02:32:08.207Z,88.60
2023-11-30T02:34:39.293Z,88.54
2023-11-30T02:37:10.620Z,88.59
2023-11-30T02:39:42.017Z,88.57
2023-11-30T02:42:13.304Z,88.62
2023-11-30T02:44:43.052Z,88.48
2023-11-30T02:47:14.178Z,88.63
2023-11-30T02:49:45.606Z,88.57
2023-11-30T02:52:16.913Z,88.54
2023-11-30T02:54:46.787Z,88.67
2023-11-30T02:57:18.316Z,88.42
2023-11-30T02:59:49.900Z,88.38
2023-11-30T03:02:21.191Z,88.77
2023-11-30T03:04:51.131Z,88.58
2023-11-30T03:07:23.446Z,88.62
2023-11-30T03:09:55.072Z,88.56
2023-11-30T03:12:26.188Z,88.74
2023-11-30T03:14:57.396Z,88.70
2023-11-30T03:17:28.642Z,88.77
2023-11-30T03:19:59.807Z,88.60
2023-11-30T03:22:31.231Z,88.68
2023-11-30T03:25:02.493Z,88.77
2023-11-30T03:27:34.157Z,88.85
2023-11-30T03:30:06.534Z,88.78
2023-11-30T03:32:37.690Z,88.75
2023-11-30T03:35:10.066Z,88.95
2023-11-30T03:37:44.003Z,88.63
2023-11-30T03:40:15.908Z,88.65
2023-11-30T03:42:47.363Z,88.69
2023-11-30T03:45:18.663Z,88.67
2023-11-30T03:47:48.748Z,88.58
2023-11-30T03:50:19.874Z,88.67
2023-11-30T03:52:51.258Z,88.64
2023-11-30T03:55:23.548Z,88.47
2023-11-30T03:57:54.761Z,88.38
2023-11-30T04:02:58.080Z,88.42
2023-11-30T04:05:27.985Z,88.38
2023-11-30T04:08:01.622Z,88.56
2023-11-30T04:10:33.020Z,88.38
2023-11-30T04:13:04.240Z,88.35
2023-11-30T04:15:35.799Z,88.22
2023-11-30T04:18:07.043Z,88.28
2023-11-30T04:20:38.290Z,88.27
2023-11-30T04:25:40.902Z,88.37
2023-11-30T04:28:12.738Z,88.34
2023-11-30T04:30:43.995Z,88.42
2023-11-30T04:33:15.547Z,88.45
2023-11-30T04:35:47.252Z,88.58
2023-11-30T04:38:18.503Z,88.55
2023-11-30T04:40:49.643Z,88.51
2023-11-30T04:43:22.333Z,88.47
2023-11-30T04:45:57.773Z,88.61
2023-11-30T04:48:29.129Z,88.72
2023-11-30T04:51:00.584Z,88.76
2023-11-30T04:53:32.593Z,88.81
2023-11-30T04:56:04.007Z,88.72
2023-11-30T04:58:33.829Z,88.54
2023-11-30T05:01:05.150Z,88.64
2023-11-30T05:03:37.108Z,88.56
2023-11-30T05:06:10.449Z,88.64
2023-11-30T05:08:41.621Z,88.46
2023-11-30T05:11:12.805Z,88.50
2023-11-30T05:13:43.812Z,88.43
2023-11-30T05:16:16.047Z,88.33
2023-11-30T05:18:47.412Z,88.20
2023-11-30T05:21:18.673Z,88.31
2023-11-30T05:23:49.822Z,88.28
2023-11-30T05:26:20.831Z,88.42
2023-11-30T05:28:52.027Z,88.27
2023-11-30T05:31:23.256Z,88.31
2023-11-30T05:33:54.764Z,88.44
2023-11-30T05:36:26.061Z,88.42
2023-11-30T05:38:57.262Z,88.43
2023-11-30T05:41:28.664Z,88.27
2023-11-30T05:43:59.745Z,88.23
2023-11-30T05:46:30.891Z,88.41
2023-11-30T05:49:02.048Z,88.38
2023-11-30T05:51:34.043Z,88.20
2023-11-30T05:54:05.270Z,88.02
2023-11-30T05:56:35.113Z,88.34
2023-11-30T05:59:06.310Z,88.28
2023-11-30T06:01:37.476Z,88.24
2023-11-30T06:04:08.704Z,88.46
2023-11-30T06:06:40.036Z,88.42
2023-11-30T06:09:11.108Z,88.42
2023-11-30T06:11:42.141Z,88.50
2023-11-30T06:14:13.227Z,88.38
2023-11-30T06:16:44.233Z,88.31
2023-11-30T06:19:15.511Z,88.53
2023-11-30T06:21:45.276Z,88.46
2023-11-30T06:24:16.410Z,88.60
2023-11-30T06:26:47.520Z,88.48
2023-11-30T06:29:18.729Z,88.39
2023-11-30T06:31:49.849Z,88.50
2023-11-30T06:34:21.684Z,88.54
2023-11-30T06:36:53.044Z,88.50
2023-11-30T06:39:24.226Z,88.48
2023-11-30T06:41:55.494Z,88.51
2023-11-30T06:44:27.073Z,88.46
2023-11-30T06:46:58.369Z,88.60
2023-11-30T06:49:29.603Z,88.37
2023-11-30T06:52:04.186Z,88.38
2023-11-30T06:54:36.971Z,88.42
2023-11-30T06:57:08.299Z,88.26
2023-11-30T06:59:39.472Z,88.41
2023-11-30T07:02:10.801Z,88.31
2023-11-30T07:04:42.726Z,88.29
2023-11-30T07:07:23.620Z,88.36
2023-11-30T07:10:01.951Z,88.35
2023-11-30T07:12:34.659Z,88.41
2023-11-30T07:15:05.092Z,88.46
2023-11-30T07:17:34.771Z,88.43
2023-11-30T07:20:08.016Z,88.28
2023-11-30T07:22:39.231Z,88.34
2023-11-30T07:25:11.797Z,88.32
2023-11-30T07:27:44.280Z,88.35
2023-11-30T07:30:15.786Z,88.44
2023-11-30T07:32:47.317Z,88.32
2023-11-30T07:35:17.060Z,88.16
2023-11-30T07:37:48.136Z,88.08
2023-11-30T07:40:19.636Z,88.29
2023-11-30T07:42:49.169Z,88.25
2023-11-30T07:45:20.295Z,88.25
2023-11-30T07:47:51.465Z,88.10
2023-11-30T07:50:22.694Z,88.19
2023-11-30T07:52:53.746Z,88.13
2023-11-30T07:55:24.700Z,88.12
2023-11-30T07:57:55.859Z,88.27
2023-11-30T08:00:26.882Z,88.17
2023-11-30T08:02:58.146Z,88.26
2023-11-30T08:05:27.969Z,88.08
2023-11-30T08:07:59.132Z,88.14
2023-11-30T08:10:30.830Z,88.31
2023-11-30T08:13:02.027Z,88.07
2023-11-30T08:15:31.688Z,88.07
2023-11-30T08:18:02.948Z,87.85
2023-11-30T08:20:35.193Z,87.93
2023-11-30T08:23:06.317Z,87.82
2023-11-30T08:25:37.527Z,87.72
2023-11-30T08:28:07.307Z,87.67
2023-11-30T08:30:38.699Z,87.64
2023-11-30T08:33:10.622Z,87.48
2023-11-30T08:35:41.785Z,87.35
2023-11-30T08:38:13.240Z,87.55
2023-11-30T08:40:44.446Z,87.29
2023-11-30T08:43:15.427Z,87.31
2023-11-30T08:45:46.841Z,87.42
2023-11-30T08:48:17.996Z,87.40
2023-11-30T08:50:49.623Z,87.05
2023-11-30T08:53:22.345Z,86.98
2023-11-30T08:55:53.468Z,87.06
2023-11-30T08:58:24.506Z,86.94
2023-11-30T09:00:55.615Z,86.78
2023-11-30T09:03:27.963Z,86.86
2023-11-30T09:05:59.088Z,86.69
2023-11-30T09:08:30.012Z,86.66
2023-11-30T09:11:01.197Z,86.21
2023-11-30T09:13:33.425Z,86.14
2023-11-30T09:16:04.881Z,86.06
2023-11-30T09:18:35.839Z,86.14
2023-11-30T09:21:08.419Z,85.75
2023-11-30T09:23:39.590Z,85.39
2023-11-30T09:26:13.126Z,85.31
2023-11-30T09:28:44.242Z,85.21
2023-11-30T09:31:15.403Z,85.10
2023-11-30T09:33:46.819Z,85.02
2023-11-30T09:36:16.890Z,84.83
2023-11-30T09:38:48.025Z,84.81
2023-11-30T09:41:22.335Z,84.88
2023-11-30T09:43:53.795Z,84.82
2023-11-30T09:46:23.313Z,84.53
2023-11-30T09:48:54.700Z,84.74
2023-11-30T09:51:25.994Z,84.56
2023-11-30T09:53:58.618Z,84.57
2023-11-30T09:56:30.085Z,84.52
2023-11-30T09:59:01.805Z,84.34
2023-11-30T10:01:34.799Z,84.38
2023-11-30T10:04:17.007Z,84.29
2023-11-30T10:06:49.357Z,84.25
2023-11-30T10:09:20.450Z,84.30
2023-11-30T10:11:51.693Z,84.19
2023-11-30T10:14:23.015Z,84.02
2023-11-30T10:16:52.626Z,83.98
2023-11-30T10:19:23.939Z,83.91
2023-11-30T10:21:58.015Z,83.88
2023-11-30T10:24:29.680Z,84.01
2023-11-30T10:27:06.767Z,84.07
2023-11-30T10:29:42.387Z,83.93
2023-11-30T10:32:15.418Z,83.60
2023-11-30T10:34:49.522Z,83.62
2023-11-30T10:37:24.308Z,83.05
2023-11-30T10:40:01.979Z,83.08
2023-11-30T10:42:36.239Z,83.18
2023-11-30T10:45:12.497Z,83.18
2023-11-30T10:47:44.014Z,82.67
2023-11-30T10:50:15.024Z,82.33
2023-11-30T10:52:47.300Z,81.93
2023-11-30T10:55:21.463Z,81.63
2023-11-30T10:57:58.379Z,81.41
2023-11-30T11:00:37.134Z,81.69
2023-11-30T11:03:12.358Z,81.90
2023-11-30T11:05:47.834Z,81.90
2023-11-30T11:08:19.343Z,81.80
2023-11-30T11:10:51.824Z,82.18
2023-11-30T11:13:26.400Z,82.14
2023-11-30T11:16:04.843Z,81.94
2023-11-30T11:18:37.184Z,81.91
2023-11-30T11:21:25.440Z,82.25
2023-11-30T11:24:04.718Z,82.26
2023-11-30T11:26:48.092Z,81.92
2023-11-30T11:29:27.099Z,81.77
2023-11-30T11:32:03.381Z,81.90
2023-11-30T11:34:34.585Z,81.54
2023-11-30T11:37:08.335Z,81.83
2023-11-30T11:39:41.245Z,81.44
2023-11-30T11:42:12.380Z,81.15
2023-11-30T11:44:43.506Z,81.29
2023-11-30T11:47:14.490Z,81.55
2023-11-30T11:49:45.437Z,81.46
2023-11-30T11:52:23.799Z,81.16
2023-11-30T11:55:06.007Z,81.11
2023-11-30T11:57:38.717Z,81.28
2023-11-30T12:00:15.173Z,81.51
2023-11-30T12:02:47.470Z,81.63
2023-11-30T12:05:26.754Z,81.63
2023-11-30T12:08:00.742Z,81.51
2023-11-30T12:10:34.691Z,81.44
2023-11-30T12:13:05.921Z,81.36
2023-11-30T12:15:37.090Z,81.67
2023-11-30T12:18:09.356Z,81.95
2023-11-30T12:20:40.927Z,82.07
2023-11-30T12:23:11.957Z,81.94
2023-11-30T12:25:43.058Z,82.12
2023-11-30T12:28:14.358Z,82.13
2023-11-30T12:30:47.004Z,82.38
2023-11-30T12:33:18.424Z,82.73
2023-11-30T12:35:49.721Z,82.58
2023-11-30T12:38:20.857Z,82.62
2023-11-30T12:40:51.928Z,82.66
2023-11-30T12:43:23.051Z,82.75
2023-11-30T12:45:54.443Z,82.86
2023-11-30T12:48:25.699Z,82.60
2023-11-30T12:50:56.804Z,82.31
2023-11-30T12:53:28.169Z,82.14
2023-11-30T12:55:59.134Z,81.81
2023-11-30T12:58:30.243Z,81.99
2023-11-30T13:01:01.330Z,81.61
2023-11-30T13:03:32.873Z,81.49
2023-11-30T13:06:04.799Z,81.41
2023-11-30T13:08:36.433Z,81.56
2023-11-30T13:11:07.820Z,81.37
2023-11-30T13:13:42.315Z,81.45
2023-11-30T13:16:16.339Z,81.29
2023-11-30T13:18:46.231Z,81.46
2023-11-30T13:21:17.462Z,81.34
2023-11-30T13:23:48.758Z,81.12
2023-11-30T13:26:21.463Z,81.12
2023-11-30T13:28:53.028Z,81.19
2023-11-30T13:31:24.228Z,81.09
2023-11-30T13:33:55.376Z,81.15
2023-11-30T13:36:26.705Z,81.25
2023-11-30T13:38:56.306Z,81.09
2023-11-30T13:41:27.520Z,81.13
2023-11-30T13:43:58.826Z,81.18
2023-11-30T13:46:28.317Z,81.29
2023-11-30T13:48:59.905Z,81.47
2023-11-30T13:51:30.953Z,81.57
2023-11-30T13:54:02.353Z,81.55
2023-11-30T13:56:34.141Z,81.55
2023-11-30T13:59:05.674Z,81.55
2023-11-30T14:01:36.812Z,81.74
2023-11-30T14:04:09.574Z,81.73
2023-11-30T14:06:42.037Z,81.84
2023-11-30T14:09:15.802Z,82.00
2023-11-30T14:11:46.912Z,82.04
2023-11-30T14:14:18.055Z,82.32
2023-11-30T14:16:49.095Z,82.47
2023-11-30T14:19:20.427Z,82.67
2023-11-30T14:21:51.579Z,82.93
2023-11-30T14:24:22.627Z,83.26
2023-11-30T14:26:59.707Z,83.36
2023-11-30T14:29:29.205Z,83.24
2023-11-30T14:32:00.849Z,83.29
2023-11-30T14:34:31.921Z,83.59
2023-11-30T14:37:02.640Z,83.44
2023-11-30T14:39:33.746Z,83.66
2023-11-30T14:42:05.575Z,83.83
2023-11-30T14:44:37.201Z,84.13
2023-11-30T14:47:09.393Z,84.25
2023-11-30T14:49:40.623Z,84.41
2023-11-30T14:52:11.651Z,84.69
2023-11-30T14:54:42.868Z,85.00
2023-11-30T14:57:15.817Z,85.01
2023-11-30T14:59:47.253Z,85.22
2023-11-30T15:02:18.659Z,85.43
2023-11-30T15:04:48.210Z,85.41
2023-11-30T15:07:19.456Z,85.45
2023-11-30T15:09:50.765Z,85.66
2023-11-30T15:12:20.462Z,85.59
2023-11-30T15:14:52.266Z,85.79
2023-11-30T15:17:23.433Z,85.86
2023-11-30T15:19:55.338Z,85.70
2023-11-30T15:22:26.636Z,85.52
2023-11-30T15:24:57.637Z,85.69
2023-11-30T15:27:28.971Z,85.83
2023-11-30T15:30:00.034Z,86.04
2023-11-30T15:32:33.279Z,85.96
2023-11-30T15:35:04.541Z,85.99
2023-11-30T15:37:36.460Z,86.26
2023-11-30T15:40:10.218Z,86.18
2023-11-30T15:42:41.509Z,86.21
2023-11-30T15:45:14.201Z,86.27
2023-11-30T15:47:45.649Z,86.12
2023-11-30T15:50:16.957Z,86.20
2023-11-30T15:52:48.041Z,86.31
2023-11-30T15:55:19.217Z,86.24
2023-11-30T15:57:50.303Z,86.42
2023-11-30T16:00:22.227Z,86.56
2023-11-30T16:02:53.376Z,86.63
2023-11-30T16:05:24.828Z,86.53
2023-11-30T16:07:56.141Z,86.38
2023-11-30T16:10:27.666Z,86.44
2023-11-30T16:12:58.902Z,86.43
2023-11-30T16:15:30.095Z,86.39
2023-11-30T16:18:01.217Z,86.26
2023-11-30T16:20:33.002Z,86.21
2023-11-30T16:23:05.305Z,86.18
2023-11-30T16:25:37.081Z,86.22
2023-11-30T16:28:08.181Z,86.31
2023-11-30T16:30:39.350Z,86.34
2023-11-30T16:33:10.782Z,86.49
2023-11-30T16:35:42.794Z,86.63
2023-11-30T16:38:13.989Z,86.46
2023-11-30T16:40:45.040Z,86.56
2023-11-30T16:43:16.568Z,86.37
2023-11-30T16:45:46.353Z,86.53
2023-11-30T16:48:19.607Z,86.38
2023-11-30T16:50:50.964Z,86.45
2023-11-30T16:53:20.473Z,86.33
2023-11-30T16:55:51.573Z,86.57
2023-11-30T16:58:22.716Z,86.42
2023-11-30T17:00:54.139Z,86.56
2023-11-30T17:03:26.735Z,86.71
2023-11-30T17:05:58.280Z,86.49
2023-11-30T17:08:29.640Z,86.34
2023-11-30T17:11:00.353Z,86.54
2023-11-30T17:13:32.474Z,86.52
2023-11-30T17:16:05.565Z,86.62
2023-11-30T17:18:40.450Z,86.59
2023-11-30T17:21:11.707Z,86.56
2023-11-30T17:23:45.263Z,86.50
2023-11-30T17:26:16.496Z,86.65
2023-11-30T17:28:47.894Z,86.80
2023-11-30T17:31:19.138Z,86.76
2023-11-30T17:33:50.664Z,87.01
2023-11-30T17:36:22.439Z,87.28
2023-11-30T17:38:53.670Z,87.16
2023-11-30T17:41:24.999Z,87.24
2023-11-30T17:43:56.703Z,87.16
2023-11-30T17:46:28.105Z,87.12
2023-11-30T17:48:59.075Z,87.15
2023-11-30T17:51:30.229Z,86.98
2023-11-30T17:54:02.182Z,87.10
2023-11-30T17:56:34.024Z,86.96
2023-11-30T17:59:05.598Z,87.00
2023-11-30T18:01:36.758Z,87.14
2023-11-30T18:04:08.781Z,87.21
2023-11-30T18:06:39.929Z,87.17
2023-11-30T18:09:11.409Z,87.09
2023-11-30T18:11:42.924Z,87.08
2023-11-30T18:14:14.721Z,87.26
2023-11-30T18:16:46.370Z,87.23
2023-11-30T18:19:15.979Z,87.44
2023-11-30T18:21:47.298Z,87.27
2023-11-30T18:24:18.300Z,87.38
2023-11-30T18:26:49.486Z,87.31
2023-11-30T18:29:20.991Z,87.53
2023-11-30T18:31:52.523Z,87.62
2023-11-30T18:34:23.937Z,87.66
2023-11-30T18:36:53.774Z,87.70
2023-11-30T18:39:25.603Z,87.63
2023-11-30T18:41:56.876Z,87.54
2023-11-30T18:44:28.065Z,87.62
2023-11-30T18:46:59.468Z,87.55
2023-11-30T18:49:30.532Z,87.45
2023-11-30T18:52:01.805Z,87.40
2023-11-30T18:54:33.058Z,87.47
2023-11-30T18:57:04.298Z,87.41
2023-11-30T18:59:35.427Z,87.68
2023-11-30T19:02:06.926Z,87.82
2023-11-30T19:04:39.457Z,87.86
2023-11-30T19:07:10.953Z,87.73
2023-11-30T19:09:42.028Z,87.67
2023-11-30T19:12:13.628Z,87.14
2023-11-30T19:14:44.779Z,87.28
2023-11-30T19:17:16.073Z,87.12
2023-11-30T19:19:45.943Z,87.24
2023-11-30T19:22:18.444Z,87.46
2023-11-30T19:24:50.065Z,87.58
2023-11-30T19:27:21.407Z,87.83
2023-11-30T19:29:52.832Z,87.75
2023-11-30T19:32:23.915Z,87.57
2023-11-30T19:34:55.232Z,87.56
2023-11-30T19:37:26.500Z,87.61
2023-11-30T19:39:59.028Z,87.88
2023-11-30T19:42:32.028Z,87.83
2023-11-30T19:45:03.418Z,87.50
2023-11-30T19:47:35.025Z,87.22
2023-11-30T19:50:07.235Z,87.08
2023-11-30T19:52:39.680Z,87.11
2023-11-30T19:55:13.055Z,86.81
2023-11-30T19:57:44.160Z,86.91
2023-11-30T20:00:16.909Z,87.17
2023-11-30T20:02:48.185Z,87.13
2023-11-30T20:05:19.417Z,87.16
2023-11-30T20:07:50.508Z,87.20
2023-11-30T20:10:21.635Z,87.25
2023-11-30T20:12:53.700Z,87.00
2023-11-30T20:15:25.380Z,86.94
2023-11-30T20:17:56.728Z,86.87
2023-11-30T20:20:28.146Z,86.61
2023-11-30T20:22:58.699Z,86.14
2023-11-30T20:25:30.203Z,86.01
2023-11-30T20:28:01.424Z,86.52
2023-11-30T20:30:32.633Z,86.77
2023-11-30T20:33:03.986Z,86.53
2023-11-30T20:35:35.192Z,86.33
2023-11-30T20:38:06.392Z,86.33
2023-11-30T20:40:37.491Z,86.19
2023-11-30T20:43:08.716Z,86.24
2023-11-30T20:45:40.507Z,85.94
2023-11-30T20:48:12.045Z,85.81
2023-11-30T20:50:43.304Z,86.32
2023-11-30T20:53:15.502Z,86.16
2023-11-30T20:55:47.839Z,86.46
2023-11-30T20:58:19.106Z,86.05
2023-11-30T21:00:51.514Z,85.84
2023-11-30T21:03:22.853Z,86.02
2023-11-30T21:05:53.944Z,86.60
2023-11-30T21:08:25.185Z,87.16
2023-11-30T21:10:56.328Z,87.19
2023-11-30T21:13:28.107Z,86.70
2023-11-30T21:16:00.263Z,86.57
2023-11-30T21:18:31.777Z,86.25
2023-11-30T21:21:02.978Z,85.99
2023-11-30T21:23:34.194Z,86.00
2023-11-30T21:26:05.652Z,86.22
2023-11-30T21:28:37.589Z,85.94
2023-11-30T21:31:10.934Z,85.98
2023-11-30T21:33:42.006Z,86.05
2023-11-30T21:36:16.233Z,86.35
2023-11-30T21:38:47.730Z,85.73
2023-11-30T21:41:20.096Z,85.07
2023-11-30T21:43:51.291Z,85.16
2023-11-30T21:46:22.391Z,85.50
2023-11-30T21:48:53.616Z,85.57
2023-11-30T21:51:29.933Z,85.75
2023-11-30T21:54:02.152Z,85.49
2023-11-30T21:56:33.516Z,85.28
2023-11-30T21:59:04.635Z,85.34
2023-11-30T22:01:35.853Z,85.10
2023-11-30T22:04:08.027Z,85.22
2023-11-30T22:06:39.786Z,85.39
2023-11-30T22:09:09.478Z,84.64
2023-11-30T22:11:43.812Z,84.67
2023-11-30T22:14:15.095Z,85.09
2023-11-30T22:16:46.540Z,85.25
2023-11-30T22:19:18.015Z,85.49
2023-11-30T22:21:49.144Z,85.17
2023-11-30T22:24:20.416Z,85.02
2023-11-30T22:26:51.491Z,84.98
2023-11-30T22:29:22.501Z,85.15
2023-11-30T22:31:53.431Z,85.06
2023-11-30T22:34:26.242Z,85.58
2023-11-30T22:36:57.899Z,85.45
2023-11-30T22:39:29.341Z,85.31
2023-11-30T22:42:00.760Z,85.54
2023-11-30T22:44:33.563Z,85.98
2023-11-30T22:47:04.788Z,85.49
2023-11-30T22:49:35.843Z,85.07
2023-11-30T22:52:07.671Z,84.57
2023-11-30T22:54:39.014Z,84.92
2023-11-30T22:57:10.229Z,84.69
2023-11-30T22:59:41.419Z,84.98
2023-11-30T23:02:13.409Z,84.61
2023-11-30T23:04:44.854Z,84.60
2023-11-30T23:07:16.824Z,83.79
2023-11-30T23:09:48.645Z,84.08
2023-11-30T23:12:19.782Z,84.75
2023-11-30T23:14:51.186Z,85.22
2023-11-30T23:17:22.421Z,85.04
2023-11-30T23:19:53.656Z,85.17
2023-11-30T23:22:24.817Z,84.98
2023-11-30T23:24:56.538Z,85.25
2023-11-30T23:27:26.057Z,84.87
2023-11-30T23:29:57.084Z,84.41
2023-11-30T23:32:28.171Z,84.56
2023-11-30T23:34:59.338Z,84.54
2023-11-30T23:37:30.428Z,84.45
2023-11-30T23:40:01.912Z,84.24
2023-11-30T23:42:34.277Z,84.04
2023-11-30T23:45:06.564Z,83.60
2023-11-30T23:47:38.289Z,83.61
2023-11-30T23:50:11.193Z,83.96
2023-11-30T23:52:42.850Z,84.37
2023-11-30T23:55:14.298Z,84.64
2023-11-30T23:57:45.692Z,84.50
